Time;durP1;ratioP1;P1;durP2;ratioP2;P2;SDS_P1;SDS_P2;PMS_P1;PMS_P2;Temp;Humidity;BMP_temperature;BMP_pressure;BME280_temperature;BME280_humidity;BME280_pressure;Samples;Min_cycle;Max_cycle;Signal;HPM_P1;HPM_P2
2021/01/10 00:00:44;;;;;;;31.87;14.53;;;;;;;0.95;100.00;102923.47;1793490;79;26258;-76
2021/01/10 00:03:15;;;;;;;33.90;14.10;;;;;;;0.87;100.00;102909.28;1793280;79;26619;-76
2021/01/10 00:05:45;;;;;;;36.63;14.50;;;;;;;0.79;100.00;102901.59;1793379;79;26247;-76
2021/01/10 00:08:15;;;;;;;35.23;14.07;;;;;;;0.67;100.00;102903.81;1793389;80;26348;-76
2021/01/10 00:10:45;;;;;;;29.27;13.53;;;;;;;0.64;100.00;102906.05;1793366;80;26702;-76
2021/01/10 00:13:15;;;;;;;38.47;15.30;;;;;;;0.78;100.00;102903.47;1793594;80;26259;-76
2021/01/10 00:15:46;;;;;;;29.57;13.37;;;;;;;0.74;100.00;102906.20;1793460;80;26322;-76
2021/01/10 00:18:16;;;;;;;28.37;13.93;;;;;;;0.72;100.00;102901.94;1793574;79;26644;-77
2021/01/10 00:20:46;;;;;;;31.23;13.13;;;;;;;0.81;100.00;102902.29;1793454;80;26762;-77
2021/01/10 00:23:24;;;;;;;37.07;13.93;;;;;;;0.65;100.00;102895.42;1793402;80;26691;-77
2021/01/10 00:26:43;;;;;;;28.70;12.70;;;;;;;0.61;100.00;102893.55;1793226;80;26220;-77
2021/01/10 00:30:18;;;;;;;;;;;;;;;;;;;;;
2021/01/10 00:35:57;;;;;;;34.87;12.97;;;;;;;0.67;100.00;102888.78;1797244;78;26232;-76
2021/01/10 00:38:26;;;;;;;33.97;13.53;;;;;;;0.66;100.00;102890.30;1812917;79;26299;-76
2021/01/10 00:40:56;;;;;;;31.17;13.37;;;;;;;0.80;100.00;102890.48;1779099;81;26216;-77
2021/01/10 00:43:26;;;;;;;31.73;13.43;;;;;;;0.69;100.00;102885.34;1813023;76;26238;-77
2021/01/10 00:45:56;;;;;;;31.13;13.00;;;;;;;0.81;100.00;102877.13;1778968;80;26215;-77
2021/01/10 00:48:26;;;;;;;29.87;13.93;;;;;;;0.69;100.00;102886.70;1812976;79;26269;-76
2021/01/10 00:50:56;;;;;;;29.10;12.60;;;;;;;0.87;100.00;102890.14;1779139;81;26224;-76
2021/01/10 00:53:26;;;;;;;30.73;13.77;;;;;;;0.80;100.00;102891.00;1813131;79;26203;-77
2021/01/10 00:55:56;;;;;;;31.57;13.47;;;;;;;0.97;100.00;102890.47;1779107;80;26207;-76
2021/01/10 00:58:26;;;;;;;29.90;14.27;;;;;;;0.88;100.00;102889.62;1812991;79;26316;-76
2021/01/10 01:00:55;;;;;;;33.47;13.47;;;;;;;0.66;100.00;102884.84;1779026;80;26392;-76
2021/01/10 01:03:25;;;;;;;32.53;13.40;;;;;;;0.58;100.00;102891.67;1812892;79;26274;-76
2021/01/10 01:05:55;;;;;;;29.20;13.03;;;;;;;0.59;100.00;102888.78;1779156;80;26678;-76
2021/01/10 01:08:25;;;;;;;29.10;13.07;;;;;;;0.75;100.00;102890.14;1813020;79;26248;-76
2021/01/10 01:10:55;;;;;;;30.00;12.97;;;;;;;0.80;100.00;102885.02;1779202;80;26329;-76
2021/01/10 01:13:24;;;;;;;33.00;13.47;;;;;;;0.87;100.00;102884.66;1813069;79;26342;-76
2021/01/10 01:15:54;;;;;;;29.23;13.40;;;;;;;0.81;100.00;102883.14;1779072;80;26263;-76
2021/01/10 01:18:24;;;;;;;38.33;14.47;;;;;;;0.81;100.00;102879.86;1812911;79;26297;-76
2021/01/10 01:20:55;;;;;;;29.53;14.53;;;;;;;0.80;100.00;102881.42;1779050;81;26223;-76
2021/01/10 01:23:24;;;;;;;27.47;14.30;;;;;;;0.84;100.00;102886.89;1812865;79;26803;-77
2021/01/10 01:25:54;;;;;;;30.73;13.40;;;;;;;0.94;100.00;102880.74;1779224;81;26310;-76
2021/01/10 01:28:25;;;;;;;26.30;13.10;;;;;;;0.97;100.00;102885.86;1812963;77;26364;-77
2021/01/10 01:30:55;;;;;;;26.00;12.33;;;;;;;0.79;100.00;102883.81;1779141;80;26348;-77
2021/01/10 01:33:25;;;;;;;25.67;11.47;;;;;;;0.85;100.00;102894.08;1813107;79;26242;-77
2021/01/10 01:35:55;;;;;;;27.40;12.33;;;;;;;0.90;100.00;102893.03;1779143;81;26715;-77
2021/01/10 01:38:24;;;;;;;27.17;12.97;;;;;;;0.75;100.00;102892.02;1813106;79;26726;-77
2021/01/10 01:41:00;;;;;;;25.43;11.50;;;;;;;0.72;100.00;102879.55;1779278;80;26235;-77
2021/01/10 01:43:30;;;;;;;21.53;11.07;;;;;;;0.71;100.00;102885.18;1813243;76;26718;-77
2021/01/10 01:46:01;;;;;;;23.63;11.43;;;;;;;0.83;100.00;102879.70;1779319;80;26323;-77
2021/01/10 01:48:31;;;;;;;25.07;10.83;;;;;;;0.78;100.00;102883.47;1813106;79;26309;-77
2021/01/10 01:51:02;;;;;;;23.47;11.40;;;;;;;0.61;100.00;102883.98;1779150;80;26286;-77
2021/01/10 01:53:32;;;;;;;21.60;10.60;;;;;;;0.62;100.00;102880.22;1813153;79;26654;-77
2021/01/10 01:56:03;;;;;;;21.57;10.83;;;;;;;0.73;100.00;102883.11;1779162;81;26294;-78
2021/01/10 01:58:33;;;;;;;22.13;10.57;;;;;;;0.60;100.00;102875.96;1813105;79;26224;-77
2021/01/10 02:01:03;;;;;;;18.40;9.53;;;;;;;0.79;100.00;102873.73;1779132;80;26224;-77
2021/01/10 02:03:36;;;;;;;19.40;10.40;;;;;;;0.71;100.00;102876.47;1792910;80;26302;-77
2021/01/10 02:06:09;;;;;;;21.40;10.17;;;;;;;0.71;100.00;102880.58;1793182;79;26204;-77
2021/01/10 02:08:40;;;;;;;18.90;10.23;;;;;;;0.83;100.00;102883.30;1793448;79;26323;-76
2021/01/10 02:11:12;;;;;;;18.90;10.17;;;;;;;0.68;100.00;102876.82;1813079;79;26203;-76
2021/01/10 02:13:44;;;;;;;19.20;10.20;;;;;;;0.63;100.00;102876.98;1779091;80;26667;-78
2021/01/10 02:16:16;;;;;;;18.47;10.00;;;;;;;0.75;100.00;102874.23;1813148;79;26347;-77
2021/01/10 02:18:46;;;;;;;17.87;9.67;;;;;;;0.65;100.00;102879.02;1779171;80;26674;-77
2021/01/10 02:21:18;;;;;;;18.43;9.73;;;;;;;0.64;100.00;102875.42;1793068;79;26274;-77
2021/01/10 02:23:49;;;;;;;20.40;10.03;;;;;;;0.58;100.00;102884.33;1793002;79;26356;-77
2021/01/10 02:26:18;;;;;;;17.30;9.47;;;;;;;0.56;100.00;102880.06;1812918;79;26246;-77
2021/01/10 02:28:49;;;;;;;19.30;10.10;;;;;;;0.58;100.00;102877.48;1793491;79;26311;-77
2021/01/10 02:31:21;;;;;;;20.13;9.53;;;;;;;0.52;100.00;102885.50;1793342;79;26220;-76
2021/01/10 02:33:54;;;;;;;20.40;10.17;;;;;;;0.42;100.00;102876.11;1793356;79;26208;-77
2021/01/10 02:36:28;;;;;;;18.77;9.00;;;;;;;0.36;100.00;102876.77;1793224;80;26271;-77
2021/01/10 02:39:02;;;;;;;18.40;9.27;;;;;;;0.48;100.00;102874.56;1793625;78;26282;-77
2021/01/10 02:41:37;;;;;;;19.00;9.43;;;;;;;0.38;100.00;102866.03;1793259;79;26277;-76
2021/01/10 02:44:12;;;;;;;15.67;8.43;;;;;;;0.38;100.00;102866.03;1793317;78;26774;-76
2021/01/10 02:46:45;;;;;;;17.80;9.10;;;;;;;0.52;100.00;102860.37;1793353;80;26596;-76
2021/01/10 02:49:15;;;;;;;17.70;8.90;;;;;;;0.49;100.00;102864.83;1793231;79;26376;-76
2021/01/10 02:51:45;;;;;;;19.00;9.00;;;;;;;0.43;100.00;102860.89;1793199;79;26617;-76
2021/01/10 02:54:15;;;;;;;15.50;8.30;;;;;;;0.41;100.00;102850.66;1793252;80;26306;-76
2021/01/10 02:56:48;;;;;;;16.60;9.00;;;;;;;0.39;100.00;102854.05;1793331;79;26213;-76
2021/01/10 02:59:21;;;;;;;19.57;9.13;;;;;;;0.37;100.00;102847.05;1793127;80;26309;-76
2021/01/10 03:01:53;;;;;;;15.07;8.20;;;;;;;0.31;100.00;102840.37;1793159;80;26651;-76
2021/01/10 03:04:23;;;;;;;16.43;8.70;;;;;;;0.39;100.00;102849.09;1793197;80;26220;-76
2021/01/10 03:06:55;;;;;;;18.63;9.47;;;;;;;0.38;100.00;102842.80;1793135;80;26216;-76
2021/01/10 03:09:25;;;;;;;18.37;8.57;;;;;;;0.32;100.00;102839.87;1793248;79;26279;-76
2021/01/10 03:11:56;;;;;;;18.80;9.20;;;;;;;0.39;100.00;102839.02;1793127;80;26286;-76
2021/01/10 03:14:25;;;;;;;16.47;8.40;;;;;;;0.34;100.00;102839.20;1793186;80;26302;-76
2021/01/10 03:16:55;;;;;;;20.60;9.17;;;;;;;0.43;100.00;102839.02;1793133;80;26754;-76
2021/01/10 03:19:25;;;;;;;15.20;8.50;;;;;;;0.43;100.00;102836.28;1793176;80;26668;-76
2021/01/10 03:21:55;;;;;;;18.87;9.60;;;;;;;0.39;100.00;102834.91;1793188;80;26212;-77
2021/01/10 03:24:25;;;;;;;16.70;8.87;;;;;;;0.38;100.00;102827.77;1793107;80;26259;-76
2021/01/10 03:26:55;;;;;;;17.60;8.60;;;;;;;0.62;100.00;102821.42;1793126;80;26279;-76
2021/01/10 03:29:24;;;;;;;16.20;8.60;;;;;;;0.48;100.00;102826.20;1793177;79;26383;-77
2021/01/10 03:31:54;;;;;;;15.23;8.57;;;;;;;0.30;100.00;102831.83;1793262;79;26209;-77
2021/01/10 03:34:24;;;;;;;17.10;8.23;;;;;;;0.46;100.00;102835.11;1793146;80;26282;-76
2021/01/10 03:36:54;;;;;;;16.17;8.77;;;;;;;0.45;100.00;102842.45;1793149;79;26208;-76
2021/01/10 03:39:24;;;;;;;16.80;7.93;;;;;;;0.47;100.00;102853.23;1793266;79;26209;-76
2021/01/10 03:41:54;;;;;;;15.33;7.90;;;;;;;0.36;100.00;102850.30;1793317;80;26196;-75
2021/01/10 03:44:24;;;;;;;17.03;8.97;;;;;;;0.39;100.00;102838.16;1793280;79;26294;-75
2021/01/10 03:46:55;;;;;;;16.57;8.97;;;;;;;0.39;100.00;102840.37;1793084;79;26294;-76
2021/01/10 03:49:25;;;;;;;14.30;8.37;;;;;;;0.29;100.00;102841.59;1793134;80;26721;-75
2021/01/10 03:51:56;;;;;;;14.67;8.60;;;;;;;0.47;100.00;102846.39;1793163;79;26666;-75
2021/01/10 03:54:25;;;;;;;17.27;8.60;;;;;;;0.48;100.00;102842.61;1793185;80;26364;-76
2021/01/10 03:56:55;;;;;;;20.07;9.37;;;;;;;0.48;100.00;102835.77;1793184;80;26208;-76
2021/01/10 03:59:25;;;;;;;16.07;8.47;;;;;;;0.45;100.00;102839.72;1793070;80;26184;-76
2021/01/10 04:01:55;;;;;;;17.33;9.43;;;;;;;0.49;100.00;102836.63;1793162;80;26200;-76
2021/01/10 04:04:25;;;;;;;15.83;9.47;;;;;;;0.42;100.00;102833.23;1793122;80;26287;-76
2021/01/10 04:06:54;;;;;;;16.57;9.03;;;;;;;0.40;100.00;102837.14;1793133;79;26283;-76
2021/01/10 04:09:24;;;;;;;18.30;9.17;;;;;;;0.47;100.00;102821.79;1793171;80;26656;-76
2021/01/10 04:11:54;;;;;;;15.77;8.87;;;;;;;0.52;100.00;102820.73;1793147;79;26210;-76
2021/01/10 04:14:24;;;;;;;15.93;8.67;;;;;;;0.51;100.00;102820.92;1793088;80;26320;-76
2021/01/10 04:16:55;;;;;;;20.90;10.50;;;;;;;0.58;100.00;102825.53;1793099;80;26220;-76
2021/01/10 04:19:24;;;;;;;15.60;9.07;;;;;;;0.55;100.00;102825.88;1793190;79;26368;-76
2021/01/10 04:21:54;;;;;;;20.03;9.50;;;;;;;0.55;100.00;102823.15;1793120;80;26275;-76
2021/01/10 04:24:24;;;;;;;18.07;11.13;;;;;;;0.40;100.00;102817.50;1793172;79;26322;-76
2021/01/10 04:26:54;;;;;;;16.30;8.87;;;;;;;0.46;100.00;102818.70;1793085;80;26216;-76
2021/01/10 04:29:24;;;;;;;18.53;9.23;;;;;;;0.58;100.00;102823.31;1793199;79;26270;-76
2021/01/10 04:31:56;;;;;;;19.70;9.93;;;;;;;0.64;100.00;102819.91;1793146;79;26306;-76
2021/01/10 04:34:26;;;;;;;21.90;10.80;;;;;;;0.53;100.00;102814.76;1793232;79;26251;-76
2021/01/10 04:36:56;;;;;;;19.10;10.07;;;;;;;0.47;100.00;102811.36;1793183;79;26271;-76
2021/01/10 04:39:26;;;;;;;20.60;10.80;;;;;;;0.39;100.00;102813.05;1793085;80;26216;-76
2021/01/10 04:41:55;;;;;;;20.73;10.33;;;;;;;0.47;100.00;102810.85;1793216;80;26285;-76
2021/01/10 04:44:26;;;;;;;25.53;11.13;;;;;;;0.39;100.00;102808.95;1793101;79;26772;-76
2021/01/10 04:46:56;;;;;;;22.60;11.47;;;;;;;0.29;100.00;102806.05;1793192;77;26220;-76
2021/01/10 04:49:26;;;;;;;24.13;11.07;;;;;;;0.37;100.00;102806.05;1793058;80;26196;-76
2021/01/10 04:51:58;;;;;;;21.63;10.37;;;;;;;0.47;100.00;102793.08;1793065;79;26290;-75
2021/01/10 04:54:30;;;;;;;22.80;10.93;;;;;;;0.38;100.00;102801.80;1793075;80;26208;-76
2021/01/10 04:57:03;;;;;;;18.97;10.03;;;;;;;0.42;100.00;102797.69;1793207;79;26204;-76
2021/01/10 04:59:33;;;;;;;24.77;11.43;;;;;;;0.52;100.00;102800.23;1793059;80;26232;-76
2021/01/10 05:02:05;;;;;;;22.30;11.37;;;;;;;0.55;100.00;102804.52;1781512;78;934643;-76
2021/01/10 05:04:35;;;;;;;23.00;11.57;;;;;;;0.52;100.00;102802.96;1793086;79;26722;-75
2021/01/10 05:07:05;;;;;;;22.87;11.63;;;;;;;0.62;100.00;102801.42;1793130;80;26679;-75
2021/01/10 05:09:37;;;;;;;23.87;10.90;;;;;;;0.43;100.00;102803.98;1793076;80;26648;-75
2021/01/10 05:12:07;;;;;;;22.10;12.03;;;;;;;0.38;100.00;102794.96;1793119;79;26225;-75
2021/01/10 05:14:37;;;;;;;22.47;11.00;;;;;;;0.44;100.00;102794.77;1793142;79;26656;-75
2021/01/10 05:17:08;;;;;;;20.63;11.00;;;;;;;0.48;100.00;102798.01;1793117;80;26287;-75
2021/01/10 05:19:40;;;;;;;23.20;11.77;;;;;;;0.35;100.00;102801.25;1792704;79;26310;-75
2021/01/10 05:22:11;;;;;;;24.97;12.23;;;;;;;0.58;100.00;102798.70;1793129;79;26635;-76
2021/01/10 05:24:41;;;;;;;24.30;11.73;;;;;;;0.67;100.00;102803.99;1793179;80;26396;-76
2021/01/10 05:27:11;;;;;;;23.43;11.33;;;;;;;0.70;100.00;102802.27;1793080;80;26290;-76
2021/01/10 05:29:43;;;;;;;23.07;11.63;;;;;;;0.74;100.00;102805.51;1793233;80;26270;-76
2021/01/10 05:32:13;;;;;;;25.57;12.87;;;;;;;0.72;100.00;102808.95;1793022;79;26358;-75
2021/01/10 05:34:44;;;;;;;26.20;12.23;;;;;;;0.72;100.00;102795.27;1793135;80;26384;-75
2021/01/10 05:37:16;;;;;;;25.83;11.37;;;;;;;0.66;100.00;102799.55;1792206;79;26670;-75
2021/01/10 05:39:46;;;;;;;23.00;11.77;;;;;;;0.57;100.00;102795.11;1793087;79;26217;-76
2021/01/10 05:42:17;;;;;;;22.57;12.07;;;;;;;0.46;100.00;102798.20;1793069;80;26220;-77
2021/01/10 05:44:51;;;;;;;22.77;11.60;;;;;;;0.70;100.00;102801.41;1793105;80;26228;-77
2021/01/10 05:47:22;;;;;;;26.00;11.20;;;;;;;0.64;100.00;102796.66;1793242;79;26773;-76
2021/01/10 05:49:54;;;;;;;19.53;10.03;;;;;;;0.62;100.00;102795.95;1793176;79;26209;-75
2021/01/10 05:52:26;;;;;;;20.77;10.30;;;;;;;0.66;100.00;102800.91;1793214;79;26212;-76
2021/01/10 05:54:57;;;;;;;22.67;11.03;;;;;;;0.74;100.00;102805.00;1793147;80;26612;-76
2021/01/10 05:57:28;;;;;;;23.63;10.87;;;;;;;0.78;100.00;102803.63;1793172;79;26324;-77
2021/01/10 05:59:58;;;;;;;21.40;11.33;;;;;;;0.81;100.00;102796.98;1793193;80;26212;-77
2021/01/10 06:02:33;;;;;;;24.97;11.97;;;;;;;0.75;100.00;102803.13;1793145;80;26679;-78
2021/01/10 06:05:13;;;;;;;20.83;10.87;;;;;;;0.66;100.00;102791.34;1793093;80;26772;-77
2021/01/10 06:07:44;;;;;;;21.03;10.90;;;;;;;0.66;100.00;102794.59;1793064;80;26256;-77
2021/01/10 06:10:16;;;;;;;22.87;10.67;;;;;;;0.63;100.00;102794.94;1793098;80;26296;-77
2021/01/10 06:12:46;;;;;;;21.67;10.93;;;;;;;0.67;100.00;102793.05;1792601;79;26722;-76
2021/01/10 06:15:18;;;;;;;24.27;10.63;;;;;;;0.71;100.00;102789.45;1793123;80;26270;-76
2021/01/10 06:17:51;;;;;;;21.13;10.57;;;;;;;0.59;100.00;102782.13;1793171;80;26224;-76
2021/01/10 06:20:26;;;;;;;19.53;10.93;;;;;;;0.52;100.00;102781.59;1793279;79;26290;-77
2021/01/10 06:22:58;;;;;;;23.23;11.47;;;;;;;0.70;100.00;102783.13;1793168;80;26240;-77
2021/01/10 06:25:30;;;;;;;23.87;11.77;;;;;;;0.54;100.00;102783.16;1793386;80;26236;-77
2021/01/10 06:28:04;;;;;;;21.83;10.57;;;;;;;0.55;100.00;102784.87;1793392;79;26212;-77
2021/01/10 06:30:36;;;;;;;19.97;10.87;;;;;;;0.61;100.00;102804.67;1793315;79;26278;-75
2021/01/10 06:33:09;;;;;;;20.47;10.57;;;;;;;0.65;100.00;102799.70;1793481;78;26330;-75
2021/01/10 06:35:41;;;;;;;24.97;11.23;;;;;;;0.73;100.00;102810.63;1793571;79;26209;-75
2021/01/10 06:38:12;;;;;;;22.50;10.53;;;;;;;0.63;100.00;102815.45;1793462;79;26309;-75
2021/01/10 06:40:44;;;;;;;22.97;11.07;;;;;;;0.62;100.00;102806.39;1793319;80;26730;-76
2021/01/10 06:43:17;;;;;;;19.03;10.97;;;;;;;0.62;100.00;102806.39;1793196;79;26270;-75
2021/01/10 06:45:47;;;;;;;25.17;12.33;;;;;;;0.67;100.00;102801.27;1793403;79;26675;-76
2021/01/10 06:48:18;;;;;;;19.20;10.37;;;;;;;0.70;100.00;102804.16;1793344;79;26348;-76
2021/01/10 06:50:48;;;;;;;21.80;10.83;;;;;;;0.67;100.00;102805.87;1792970;79;26221;-75
2021/01/10 06:53:18;;;;;;;22.07;11.43;;;;;;;0.82;100.00;102812.34;1793436;80;26209;-75
2021/01/10 06:55:48;;;;;;;21.37;10.40;;;;;;;0.83;100.00;102800.38;1793238;80;26224;-75
2021/01/10 06:58:18;;;;;;;19.13;9.73;;;;;;;0.81;100.00;102795.06;1793319;79;26282;-75
2021/01/10 07:00:56;;;;;;;20.07;10.57;;;;;;;0.69;100.00;102786.03;1793438;80;26220;-76
2021/01/10 07:03:27;;;;;;;20.13;10.30;;;;;;;0.70;100.00;102790.48;1793351;79;26224;-76
2021/01/10 07:06:07;;;;;;;22.57;10.17;;;;;;;0.73;100.00;102780.55;1793270;80;26240;-77
2021/01/10 07:08:42;;;;;;;19.57;9.83;;;;;;;0.65;100.00;102779.19;1793630;79;26209;-77
2021/01/10 07:11:37;;;;;;;20.27;10.43;;;;;;;0.65;100.00;102784.16;1793483;80;26287;-77
2021/01/10 07:14:28;;;;;;;23.90;11.57;;;;;;;0.74;100.00;102783.63;1793443;79;26266;-77
2021/01/10 07:17:19;;;;;;;21.80;9.77;;;;;;;0.68;100.00;102786.56;1793386;80;26216;-77
2021/01/10 07:19:52;;;;;;;22.17;11.20;;;;;;;0.67;100.00;102797.16;1793146;80;26216;-78
2021/01/10 07:22:34;;;;;;;21.33;11.00;;;;;;;0.74;100.00;102791.84;1793347;79;26208;-78
2021/01/10 07:25:36;;;;;;;24.73;11.53;;;;;;;0.80;100.00;102787.91;1793343;80;26357;-78
2021/01/10 07:28:37;;;;;;;26.23;11.43;;;;;;;0.75;100.00;102787.57;1793400;80;26273;-77
2021/01/10 07:31:26;;;;;;;22.43;10.73;;;;;;;0.78;100.00;102785.84;1793444;79;26620;-77
2021/01/10 07:34:12;;;;;;;26.07;11.90;;;;;;;0.85;100.00;102775.94;1793535;77;26260;-77
2021/01/10 07:36:51;;;;;;;24.00;12.27;;;;;;;0.90;100.00;102783.59;1793301;79;26213;-76
2021/01/10 07:39:25;;;;;;;25.00;11.17;;;;;;;0.87;100.00;102786.17;1793287;79;26286;-77
2021/01/10 07:41:58;;;;;;;24.27;11.53;;;;;;;0.83;100.00;102790.28;1793327;80;26204;-78
2021/01/10 07:44:46;;;;;;;25.93;12.53;;;;;;;0.87;100.00;102791.64;1792243;79;26282;-76
2021/01/10 07:47:16;;;;;;;24.27;10.97;;;;;;;0.89;100.00;102790.12;1793356;80;26232;-76
2021/01/10 07:49:56;;;;;;;22.63;11.57;;;;;;;0.78;100.00;102791.31;1793315;77;26212;-77
2021/01/10 07:52:59;;;;;;;26.60;12.37;;;;;;;0.84;100.00;102785.16;1793238;79;26205;-77
2021/01/10 07:55:31;;;;;;;26.00;11.93;;;;;;;0.87;100.00;102789.42;1793331;79;26196;-77
2021/01/10 07:58:21;;;;;;;26.17;11.53;;;;;;;0.84;100.00;102798.84;1793410;79;26663;-76
2021/01/10 08:00:55;;;;;;;26.97;12.20;;;;;;;0.89;100.00;102796.95;1793285;80;26215;-76
2021/01/10 08:03:27;;;;;;;27.87;11.90;;;;;;;0.90;100.00;102793.16;1793379;79;26255;-75
2021/01/10 08:06:06;;;;;;;27.10;12.87;;;;;;;0.88;100.00;102789.26;1793325;80;26212;-75
2021/01/10 08:08:42;;;;;;;25.60;12.20;;;;;;;0.85;100.00;102792.86;1793123;80;26616;-78
2021/01/10 08:11:13;;;;;;;32.23;13.27;;;;;;;0.88;100.00;102788.40;1793230;80;26217;-76
2021/01/10 08:13:44;;;;;;;30.70;13.43;;;;;;;0.94;100.00;102790.97;1793147;80;26212;-77
2021/01/10 08:16:16;;;;;;;26.37;11.90;;;;;;;0.89;100.00;102792.85;1793354;79;26707;-78
2021/01/10 08:18:47;;;;;;;28.47;12.40;;;;;;;0.88;100.00;102795.24;1792335;79;26302;-77
2021/01/10 08:21:18;;;;;;;30.97;13.23;;;;;;;1.00;100.00;102790.25;1793249;79;26287;-77
2021/01/10 08:23:54;;;;;;;30.30;13.37;;;;;;;1.04;100.00;102798.44;1793307;80;26746;-79
2021/01/10 08:26:24;;;;;;;26.33;12.50;;;;;;;1.01;100.00;102805.64;1793322;79;26337;-78
2021/01/10 08:28:57;;;;;;;27.33;12.63;;;;;;;1.00;100.00;102803.92;1793354;80;26345;-80
2021/01/10 08:31:29;;;;;;;26.57;12.90;;;;;;;0.96;100.00;102806.67;1793428;79;26667;-78
2021/01/10 08:34:04;;;;;;;29.77;13.07;;;;;;;1.02;100.00;102804.62;1793425;77;26329;-78
2021/01/10 08:36:35;;;;;;;32.10;13.90;;;;;;;1.12;100.00;102802.52;1793516;80;26791;-78
2021/01/10 08:39:08;;;;;;;27.80;12.23;;;;;;;1.11;100.00;102795.37;1793440;80;26792;-78
2021/01/10 08:41:41;;;;;;;33.50;13.60;;;;;;;1.17;100.00;102798.75;1793358;79;26263;-79
2021/01/10 08:44:13;;;;;;;34.97;14.00;;;;;;;1.14;100.00;102808.18;1793467;80;26725;-77
2021/01/10 08:46:45;;;;;;;35.70;15.87;;;;;;;1.11;100.00;102807.69;1793143;79;26290;-82
2021/01/10 08:49:18;;;;;;;31.00;14.77;;;;;;;1.13;100.00;102814.67;1793188;79;26275;-82
2021/01/10 08:51:48;;;;;;;34.03;13.23;;;;;;;1.22;100.00;102812.77;1793119;80;26703;-81
2021/01/10 08:54:20;;;;;;;32.40;13.73;;;;;;;1.15;100.00;102803.56;1793256;79;26213;-80
2021/01/10 08:56:53;;;;;;;32.07;14.00;;;;;;;1.16;100.00;102809.35;1793182;80;26676;-81
2021/01/10 08:59:24;;;;;;;31.50;13.77;;;;;;;1.28;100.00;102814.81;1793276;79;26676;-82
2021/01/10 09:01:55;;;;;;;29.90;13.93;;;;;;;1.25;100.00;102816.00;1793432;79;26695;-80
2021/01/10 09:04:25;;;;;;;35.17;14.47;;;;;;;1.15;100.00;102818.10;1792769;79;26220;-80
2021/01/10 09:07:04;;;;;;;33.17;15.20;;;;;;;1.16;100.00;102819.79;1793375;79;26414;-80
2021/01/10 09:09:42;;;;;;;31.53;13.20;;;;;;;1.23;100.00;102818.59;1793374;80;26299;-80
2021/01/10 09:12:25;;;;;;;32.17;13.80;;;;;;;1.32;100.00;102817.54;1793441;80;26208;-80
2021/01/10 09:14:58;;;;;;;31.80;15.33;;;;;;;1.28;100.00;102815.64;1793101;79;26729;-81
2021/01/10 09:17:31;;;;;;;35.73;14.90;;;;;;;1.34;100.00;102808.10;1793182;80;26279;-79
2021/01/10 09:20:08;;;;;;;33.77;15.13;;;;;;;1.36;100.00;102810.16;1793157;80;26667;-79
2021/01/10 09:22:39;;;;;;;32.27;14.80;;;;;;;1.31;100.00;102801.62;1793248;79;26639;-79
2021/01/10 09:25:17;;;;;;;34.10;15.63;;;;;;;1.47;100.00;102812.16;1793237;80;26283;-79
2021/01/10 09:28:12;;;;;;;35.73;14.80;;;;;;;1.41;100.00;102806.89;1793299;79;26213;-80
2021/01/10 09:30:44;;;;;;;33.67;14.03;;;;;;;1.38;100.00;102816.30;1793245;79;26302;-80
2021/01/10 09:33:15;;;;;;;35.20;15.03;;;;;;;1.47;100.00;102816.27;1793180;79;26734;-80
2021/01/10 09:35:49;;;;;;;32.60;15.30;;;;;;;1.45;100.00;102820.57;1793188;80;26252;-79
2021/01/10 09:38:22;;;;;;;32.37;13.80;;;;;;;1.62;100.00;102813.99;1793378;79;26293;-80
2021/01/10 09:41:09;;;;;;;33.60;14.60;;;;;;;1.64;100.00;102811.05;1793388;80;26227;-80
2021/01/10 09:43:41;;;;;;;41.37;16.70;;;;;;;1.60;100.00;102803.72;1793416;79;26651;-78
2021/01/10 09:46:31;;;;;;;35.27;14.53;;;;;;;1.66;100.00;102810.38;1793455;80;26209;-80
2021/01/10 09:49:04;;;;;;;34.30;15.33;;;;;;;1.62;100.00;102808.52;1793313;79;26228;-79
2021/01/10 09:51:41;;;;;;;34.03;15.93;;;;;;;1.63;100.00;102812.94;1793419;79;26379;-80
2021/01/10 09:54:18;;;;;;;34.90;14.73;;;;;;;1.64;100.00;102806.95;1793269;79;26282;-83
2021/01/10 09:56:49;;;;;;;32.33;14.87;;;;;;;1.73;100.00;102805.36;1793180;80;26379;-81
2021/01/10 09:59:39;;;;;;;35.43;16.40;;;;;;;1.69;100.00;102805.90;1793386;79;26644;-81
2021/01/10 10:02:11;;;;;;;35.63;16.20;;;;;;;1.74;100.00;102807.08;1793338;80;26200;-80
2021/01/10 10:04:44;;;;;;;39.87;20.30;;;;;;;1.69;100.00;102801.28;1793333;79;26220;-83
2021/01/10 10:07:14;;;;;;;35.10;15.73;;;;;;;1.69;100.00;102810.87;1793545;79;26204;-79
2021/01/10 10:09:52;;;;;;;35.93;15.63;;;;;;;1.80;100.00;102815.07;1793359;80;26679;-79
2021/01/10 10:12:24;;;;;;;35.23;15.67;;;;;;;1.85;100.00;102811.28;1793238;80;26655;-81
2021/01/10 10:14:59;;;;;;;42.13;19.50;;;;;;;1.94;100.00;102810.72;1793308;79;26734;-81
2021/01/10 10:17:31;;;;;;;37.67;17.60;;;;;;;1.84;100.00;102810.42;1793350;79;26220;-79
2021/01/10 10:20:01;;;;;;;32.97;14.83;;;;;;;1.92;100.00;102812.80;1793544;80;26633;-79
2021/01/10 10:22:32;;;;;;;37.20;15.50;;;;;;;1.97;100.00;102813.95;1793305;79;26209;-79
2021/01/10 10:25:04;;;;;;;35.90;15.53;;;;;;;1.97;100.00;102813.13;1793411;79;26274;-79
2021/01/10 10:27:35;;;;;;;37.97;16.40;;;;;;;1.96;100.00;102820.48;1793260;80;26603;-78
2021/01/10 10:30:07;;;;;;;42.17;17.87;;;;;;;2.02;100.00;102823.86;1793386;80;26346;-78
2021/01/10 10:32:37;;;;;;;35.73;15.73;;;;;;;2.01;100.00;102822.14;1793403;79;26306;-79
2021/01/10 10:35:09;;;;;;;36.10;16.67;;;;;;;2.06;100.00;102811.49;1793298;79;26260;-78
2021/01/10 10:37:39;;;;;;;36.57;16.77;;;;;;;2.08;100.00;102809.44;1793333;80;26714;-79
2021/01/10 10:40:12;;;;;;;37.40;16.70;;;;;;;2.05;100.00;102799.36;1793385;80;26227;-80
2021/01/10 10:42:42;;;;;;;35.20;16.50;;;;;;;2.22;100.00;102807.81;1793233;79;26219;-80
2021/01/10 10:45:13;;;;;;;34.37;15.90;;;;;;;2.23;100.00;102800.75;1793409;79;26286;-79
2021/01/10 10:47:43;;;;;;;36.50;17.90;;;;;;;2.25;100.00;102804.69;1793546;80;26212;-77
2021/01/10 10:50:14;;;;;;;38.03;17.63;;;;;;;2.33;100.00;102791.44;1793479;78;26228;-80
2021/01/10 10:52:44;;;;;;;35.03;15.07;;;;;;;2.37;100.00;102800.99;1793430;79;26220;-80
2021/01/10 10:55:17;;;;;;;43.63;18.07;;;;;;;2.40;100.00;102795.98;1793447;79;26286;-78
2021/01/10 10:57:46;;;;;;;34.67;16.70;;;;;;;2.52;100.00;102800.55;1793614;79;26207;-79
2021/01/10 11:00:18;;;;;;;41.60;17.93;;;;;;;2.45;100.00;102800.41;1793529;79;26209;-79
2021/01/10 11:02:51;;;;;;;35.93;16.70;;;;;;;2.52;100.00;102801.41;1793314;80;26305;-81
2021/01/10 11:05:25;;;;;;;36.10;16.63;;;;;;;2.50;100.00;102790.26;1809700;78;26684;-80
2021/01/10 11:08:13;;;;;;;;;;;;;;;;;;;;;
2021/01/10 11:11:02;;;;;;;;;;;;;;;;;;;;;
2021/01/10 11:13:39;;;;;;;;;;;;;;;;;;;;;
2021/01/10 11:16:21;;;;;;;;;;;;;;;;;;;;;
2021/01/10 11:19:01;;;;;;;39.17;16.53;;;;;;;2.60;100.00;102775.27;1808639;79;26215;-78
2021/01/10 11:21:53;;;;;;;41.47;17.67;;;;;;;2.71;100.00;102767.08;1779044;81;26686;-80
2021/01/10 11:24:23;;;;;;;37.50;17.97;;;;;;;2.75;100.00;102774.76;1813101;79;26324;-81
2021/01/10 11:26:53;;;;;;;44.40;19.47;;;;;;;2.72;100.00;102777.03;1779156;80;26214;-80
2021/01/10 11:29:23;;;;;;;36.03;17.00;;;;;;;2.76;100.00;102770.13;1813030;79;26263;-79
2021/01/10 11:31:52;;;;;;;36.60;17.43;;;;;;;2.77;100.00;102761.38;1779149;80;26319;-79
2021/01/10 11:34:23;;;;;;;33.87;17.10;;;;;;;2.66;100.00;102766.78;1813119;79;26667;-77
2021/01/10 11:36:55;;;;;;;33.87;15.37;;;;;;;2.66;100.00;102769.02;1779217;78;26353;-80
2021/01/10 11:39:27;;;;;;;29.50;13.97;;;;;;;2.72;100.00;102767.42;1813170;79;26234;-80
2021/01/10 11:41:57;;;;;;;28.90;14.83;;;;;;;2.77;100.00;102759.48;1779222;81;26368;-79
2021/01/10 11:44:29;;;;;;;34.03;16.40;;;;;;;2.80;100.00;102758.25;1813073;79;26243;-80
2021/01/10 11:47:02;;;;;;;32.13;15.60;;;;;;;2.89;100.00;102753.86;1779348;81;26226;-82